sensor_id;sensor_type;location;lat;lon;timestamp;P1;durP1;ratioP1;P2;durP2;ratioP2
20976;SDS011;10647;51.016;3.720;2023-05-01T00:02:04;7.40;;;5.60;;
20976;SDS011;10647;51.016;3.720;2023-05-01T00:04:32;10.77;;;6.37;;
20976;SDS011;10647;51.016;3.720;2023-05-01T00:07:01;7.17;;;6.10;;
20976;SDS011;10647;51.016;3.720;2023-05-01T00:09:28;7.80;;;5.77;;
20976;SDS011;10647;51.016;3.720;2023-05-01T00:11:57;8.40;;;5.93;;
20976;SDS011;10647;51.016;3.720;2023-05-01T00:14:24;8.33;;;6.40;;
20976;SDS011;10647;51.016;3.720;2023-05-01T00:16:52;10.13;;;6.23;;
20976;SDS011;10647;51.016;3.720;2023-05-01T00:19:19;9.33;;;6.07;;
20976;SDS011;10647;51.016;3.720;2023-05-01T00:21:47;8.10;;;5.90;;
20976;SDS011;10647;51.016;3.720;2023-05-01T00:24:16;6.30;;;5.60;;
20976;SDS011;10647;51.016;3.720;2023-05-01T00:26:44;7.97;;;6.00;;
20976;SDS011;10647;51.016;3.720;2023-05-01T00:29:11;6.53;;;5.63;;
20976;SDS011;10647;51.016;3.720;2023-05-01T00:31:39;8.67;;;5.60;;
20976;SDS011;10647;51.016;3.720;2023-05-01T00:34:07;6.43;;;5.80;;
20976;SDS011;10647;51.016;3.720;2023-05-01T00:36:36;5.97;;;5.47;;
20976;SDS011;10647;51.016;3.720;2023-05-01T00:44:31;6.43;;;5.50;;
20976;SDS011;10647;51.016;3.720;2023-05-01T00:46:59;7.90;;;5.70;;
20976;SDS011;10647;51.016;3.720;2023-05-01T00:49:28;6.87;;;5.50;;
20976;SDS011;10647;51.016;3.720;2023-05-01T00:51:58;7.33;;;5.20;;
20976;SDS011;10647;51.016;3.720;2023-05-01T00:54:29;8.37;;;5.63;;
20976;SDS011;10647;51.016;3.720;2023-05-01T00:56:57;7.47;;;5.70;;
20976;SDS011;10647;51.016;3.720;2023-05-01T01:02:47;7.30;;;5.60;;
20976;SDS011;10647;51.016;3.720;2023-05-01T01:11:39;7.77;;;5.77;;
20976;SDS011;10647;51.016;3.720;2023-05-01T01:20:00;9.03;;;5.70;;
20976;SDS011;10647;51.016;3.720;2023-05-01T01:28:31;9.70;;;6.00;;
20976;SDS011;10647;51.016;3.720;2023-05-01T01:31:16;7.80;;;5.87;;
20976;SDS011;10647;51.016;3.720;2023-05-01T01:36:39;8.47;;;6.10;;
20976;SDS011;10647;51.016;3.720;2023-05-01T01:42:12;7.43;;;5.73;;
20976;SDS011;10647;51.016;3.720;2023-05-01T01:44:51;7.90;;;6.23;;
20976;SDS011;10647;51.016;3.720;2023-05-01T01:47:19;8.30;;;6.00;;
20976;SDS011;10647;51.016;3.720;2023-05-01T01:49:51;7.90;;;6.20;;
20976;SDS011;10647;51.016;3.720;2023-05-01T01:52:20;7.13;;;5.93;;
20976;SDS011;10647;51.016;3.720;2023-05-01T01:54:52;8.23;;;6.00;;
20976;SDS011;10647;51.016;3.720;2023-05-01T01:57:24;8.93;;;6.30;;
20976;SDS011;10647;51.016;3.720;2023-05-01T01:59:58;7.90;;;6.10;;
20976;SDS011;10647;51.016;3.720;2023-05-01T02:02:26;9.83;;;6.30;;
20976;SDS011;10647;51.016;3.720;2023-05-01T02:04:58;9.30;;;5.90;;
20976;SDS011;10647;51.016;3.720;2023-05-01T02:07:26;6.83;;;6.00;;
20976;SDS011;10647;51.016;3.720;2023-05-01T02:09:56;9.07;;;6.63;;
20976;SDS011;10647;51.016;3.720;2023-05-01T02:12:24;9.30;;;6.50;;
20976;SDS011;10647;51.016;3.720;2023-05-01T02:14:54;8.27;;;6.30;;
20976;SDS011;10647;51.016;3.720;2023-05-01T02:17:23;10.00;;;6.53;;
20976;SDS011;10647;51.016;3.720;2023-05-01T02:19:52;7.73;;;6.20;;
20976;SDS011;10647;51.016;3.720;2023-05-01T02:22:22;7.83;;;6.40;;
20976;SDS011;10647;51.016;3.720;2023-05-01T02:24:52;9.43;;;6.40;;
20976;SDS011;10647;51.016;3.720;2023-05-01T02:27:33;7.70;;;6.27;;
20976;SDS011;10647;51.016;3.720;2023-05-01T02:29:58;8.47;;;6.50;;
20976;SDS011;10647;51.016;3.720;2023-05-01T02:32:27;7.00;;;6.27;;
20976;SDS011;10647;51.016;3.720;2023-05-01T02:34:56;11.90;;;6.30;;
20976;SDS011;10647;51.016;3.720;2023-05-01T02:37:27;7.97;;;6.63;;
20976;SDS011;10647;51.016;3.720;2023-05-01T02:39:55;7.53;;;6.47;;
20976;SDS011;10647;51.016;3.720;2023-05-01T02:42:24;7.33;;;6.50;;
20976;SDS011;10647;51.016;3.720;2023-05-01T02:44:54;8.37;;;6.93;;
20976;SDS011;10647;51.016;3.720;2023-05-01T02:47:26;11.87;;;6.73;;
20976;SDS011;10647;51.016;3.720;2023-05-01T02:49:55;10.23;;;6.60;;
20976;SDS011;10647;51.016;3.720;2023-05-01T02:52:26;9.07;;;6.53;;
20976;SDS011;10647;51.016;3.720;2023-05-01T02:54:57;11.27;;;7.00;;
20976;SDS011;10647;51.016;3.720;2023-05-01T02:57:26;8.03;;;6.70;;
20976;SDS011;10647;51.016;3.720;2023-05-01T02:59:54;7.23;;;6.50;;
20976;SDS011;10647;51.016;3.720;2023-05-01T03:04:52;10.50;;;7.33;;
20976;SDS011;10647;51.016;3.720;2023-05-01T03:07:19;11.57;;;6.80;;
20976;SDS011;10647;51.016;3.720;2023-05-01T03:09:47;7.50;;;6.40;;
20976;SDS011;10647;51.016;3.720;2023-05-01T03:12:15;7.87;;;6.83;;
20976;SDS011;10647;51.016;3.720;2023-05-01T03:14:42;10.20;;;6.60;;
20976;SDS011;10647;51.016;3.720;2023-05-01T03:17:10;8.73;;;6.87;;
20976;SDS011;10647;51.016;3.720;2023-05-01T03:19:38;9.37;;;6.90;;
20976;SDS011;10647;51.016;3.720;2023-05-01T03:22:07;9.80;;;7.27;;
20976;SDS011;10647;51.016;3.720;2023-05-01T03:24:34;9.03;;;7.00;;
20976;SDS011;10647;51.016;3.720;2023-05-01T03:27:02;11.50;;;7.37;;
20976;SDS011;10647;51.016;3.720;2023-05-01T03:29:30;8.53;;;7.40;;
20976;SDS011;10647;51.016;3.720;2023-05-01T03:31:58;8.70;;;7.40;;
20976;SDS011;10647;51.016;3.720;2023-05-01T03:34:26;9.43;;;7.60;;
20976;SDS011;10647;51.016;3.720;2023-05-01T03:36:54;10.27;;;8.67;;
20976;SDS011;10647;51.016;3.720;2023-05-01T03:39:22;10.67;;;8.70;;
20976;SDS011;10647;51.016;3.720;2023-05-01T03:41:50;9.63;;;8.27;;
20976;SDS011;10647;51.016;3.720;2023-05-01T03:47:05;12.27;;;9.17;;
20976;SDS011;10647;51.016;3.720;2023-05-01T03:49:38;10.53;;;8.90;;
20976;SDS011;10647;51.016;3.720;2023-05-01T03:52:07;12.33;;;9.57;;
20976;SDS011;10647;51.016;3.720;2023-05-01T03:54:42;12.23;;;9.00;;
20976;SDS011;10647;51.016;3.720;2023-05-01T03:57:09;11.13;;;9.80;;
20976;SDS011;10647;51.016;3.720;2023-05-01T03:59:37;11.63;;;9.93;;
20976;SDS011;10647;51.016;3.720;2023-05-01T04:02:04;12.77;;;9.57;;
20976;SDS011;10647;51.016;3.720;2023-05-01T04:04:32;11.17;;;10.07;;
20976;SDS011;10647;51.016;3.720;2023-05-01T04:07:01;11.47;;;10.03;;
20976;SDS011;10647;51.016;3.720;2023-05-01T04:09:29;14.27;;;9.97;;
20976;SDS011;10647;51.016;3.720;2023-05-01T04:11:57;12.60;;;11.00;;
20976;SDS011;10647;51.016;3.720;2023-05-01T04:14:24;12.40;;;10.63;;
20976;SDS011;10647;51.016;3.720;2023-05-01T04:16:53;13.87;;;10.93;;
20976;SDS011;10647;51.016;3.720;2023-05-01T04:19:21;13.07;;;11.67;;
20976;SDS011;10647;51.016;3.720;2023-05-01T04:21:49;14.47;;;11.47;;
20976;SDS011;10647;51.016;3.720;2023-05-01T04:24:18;12.63;;;11.33;;
20976;SDS011;10647;51.016;3.720;2023-05-01T04:26:51;13.17;;;11.50;;
20976;SDS011;10647;51.016;3.720;2023-05-01T04:29:20;15.73;;;11.37;;
20976;SDS011;10647;51.016;3.720;2023-05-01T04:31:48;13.17;;;10.93;;
20976;SDS011;10647;51.016;3.720;2023-05-01T04:34:17;16.03;;;12.10;;
20976;SDS011;10647;51.016;3.720;2023-05-01T04:36:44;14.60;;;11.00;;
20976;SDS011;10647;51.016;3.720;2023-05-01T04:39:12;12.43;;;11.23;;
20976;SDS011;10647;51.016;3.720;2023-05-01T04:41:40;14.30;;;11.80;;
20976;SDS011;10647;51.016;3.720;2023-05-01T04:44:09;15.63;;;13.17;;
20976;SDS011;10647;51.016;3.720;2023-05-01T04:46:36;15.70;;;12.53;;
20976;SDS011;10647;51.016;3.720;2023-05-01T04:49:04;15.67;;;13.07;;
20976;SDS011;10647;51.016;3.720;2023-05-01T04:51:32;15.17;;;13.57;;
20976;SDS011;10647;51.016;3.720;2023-05-01T04:54:00;16.27;;;13.97;;
20976;SDS011;10647;51.016;3.720;2023-05-01T04:56:29;19.93;;;14.77;;
20976;SDS011;10647;51.016;3.720;2023-05-01T04:58:57;20.23;;;15.87;;
20976;SDS011;10647;51.016;3.720;2023-05-01T05:01:24;20.33;;;16.03;;
20976;SDS011;10647;51.016;3.720;2023-05-01T05:03:52;19.97;;;15.73;;
20976;SDS011;10647;51.016;3.720;2023-05-01T05:06:25;24.93;;;17.67;;
20976;SDS011;10647;51.016;3.720;2023-05-01T05:08:53;23.87;;;17.23;;
20976;SDS011;10647;51.016;3.720;2023-05-01T05:11:28;20.90;;;18.20;;
20976;SDS011;10647;51.016;3.720;2023-05-01T05:16:42;21.37;;;18.57;;
20976;SDS011;10647;51.016;3.720;2023-05-01T05:19:10;25.33;;;20.50;;
20976;SDS011;10647;51.016;3.720;2023-05-01T05:21:39;28.90;;;21.00;;
20976;SDS011;10647;51.016;3.720;2023-05-01T05:24:06;24.77;;;20.43;;
20976;SDS011;10647;51.016;3.720;2023-05-01T05:26:34;29.23;;;20.73;;
20976;SDS011;10647;51.016;3.720;2023-05-01T05:29:03;24.20;;;20.00;;
20976;SDS011;10647;51.016;3.720;2023-05-01T05:31:30;26.70;;;21.33;;
20976;SDS011;10647;51.016;3.720;2023-05-01T05:33:58;29.67;;;22.33;;
20976;SDS011;10647;51.016;3.720;2023-05-01T05:36:26;34.63;;;24.40;;
20976;SDS011;10647;51.016;3.720;2023-05-01T05:38:54;32.57;;;24.30;;
20976;SDS011;10647;51.016;3.720;2023-05-01T05:41:22;40.07;;;25.90;;
20976;SDS011;10647;51.016;3.720;2023-05-01T05:43:49;38.97;;;25.33;;
20976;SDS011;10647;51.016;3.720;2023-05-01T05:46:18;42.20;;;28.40;;
20976;SDS011;10647;51.016;3.720;2023-05-01T05:48:46;47.07;;;28.23;;
20976;SDS011;10647;51.016;3.720;2023-05-01T05:51:13;50.57;;;29.40;;
20976;SDS011;10647;51.016;3.720;2023-05-01T05:53:41;45.30;;;30.77;;
20976;SDS011;10647;51.016;3.720;2023-05-01T05:56:09;43.83;;;29.47;;
20976;SDS011;10647;51.016;3.720;2023-05-01T05:58:38;44.67;;;28.43;;
20976;SDS011;10647;51.016;3.720;2023-05-01T06:01:10;49.97;;;31.80;;
20976;SDS011;10647;51.016;3.720;2023-05-01T06:03:40;49.67;;;31.63;;
20976;SDS011;10647;51.016;3.720;2023-05-01T06:08:59;49.27;;;32.67;;
20976;SDS011;10647;51.016;3.720;2023-05-01T06:11:27;54.90;;;34.67;;
20976;SDS011;10647;51.016;3.720;2023-05-01T06:13:56;54.10;;;33.67;;
20976;SDS011;10647;51.016;3.720;2023-05-01T06:16:23;55.60;;;34.33;;
20976;SDS011;10647;51.016;3.720;2023-05-01T06:18:54;54.23;;;32.93;;
20976;SDS011;10647;51.016;3.720;2023-05-01T06:21:22;53.37;;;35.20;;
20976;SDS011;10647;51.016;3.720;2023-05-01T06:23:55;54.83;;;34.60;;
20976;SDS011;10647;51.016;3.720;2023-05-01T06:26:25;51.17;;;33.60;;
20976;SDS011;10647;51.016;3.720;2023-05-01T06:28:53;54.03;;;34.87;;
20976;SDS011;10647;51.016;3.720;2023-05-01T06:31:21;50.80;;;31.57;;
20976;SDS011;10647;51.016;3.720;2023-05-01T06:33:50;50.87;;;32.87;;
20976;SDS011;10647;51.016;3.720;2023-05-01T06:36:21;52.10;;;31.80;;
20976;SDS011;10647;51.016;3.720;2023-05-01T06:38:49;47.93;;;30.03;;
20976;SDS011;10647;51.016;3.720;2023-05-01T06:41:16;51.60;;;33.70;;
20976;SDS011;10647;51.016;3.720;2023-05-01T06:43:45;51.63;;;33.17;;
20976;SDS011;10647;51.016;3.720;2023-05-01T06:46:12;51.23;;;32.87;;
20976;SDS011;10647;51.016;3.720;2023-05-01T06:48:42;49.87;;;29.53;;
20976;SDS011;10647;51.016;3.720;2023-05-01T06:51:11;54.80;;;34.23;;
20976;SDS011;10647;51.016;3.720;2023-05-01T06:53:40;51.87;;;32.93;;
20976;SDS011;10647;51.016;3.720;2023-05-01T06:56:09;49.60;;;32.10;;
20976;SDS011;10647;51.016;3.720;2023-05-01T06:58:36;51.03;;;33.23;;
20976;SDS011;10647;51.016;3.720;2023-05-01T07:01:04;52.70;;;32.53;;
20976;SDS011;10647;51.016;3.720;2023-05-01T07:03:32;50.13;;;31.20;;
20976;SDS011;10647;51.016;3.720;2023-05-01T07:06:00;48.63;;;30.93;;
20976;SDS011;10647;51.016;3.720;2023-05-01T07:08:29;49.63;;;32.37;;
20976;SDS011;10647;51.016;3.720;2023-05-01T07:10:57;46.90;;;32.00;;
20976;SDS011;10647;51.016;3.720;2023-05-01T07:13:30;53.10;;;32.10;;
20976;SDS011;10647;51.016;3.720;2023-05-01T07:15:57;53.60;;;33.43;;
20976;SDS011;10647;51.016;3.720;2023-05-01T07:18:27;48.33;;;31.40;;
20976;SDS011;10647;51.016;3.720;2023-05-01T07:20:54;47.83;;;30.93;;
20976;SDS011;10647;51.016;3.720;2023-05-01T07:23:22;41.42;;;28.70;;
20976;SDS011;10647;51.016;3.720;2023-05-01T07:25:51;42.07;;;26.13;;
20976;SDS011;10647;51.016;3.720;2023-05-01T07:28:23;38.77;;;25.50;;
20976;SDS011;10647;51.016;3.720;2023-05-01T07:30:51;40.63;;;26.35;;
20976;SDS011;10647;51.016;3.720;2023-05-01T07:33:18;41.53;;;27.90;;
20976;SDS011;10647;51.016;3.720;2023-05-01T07:35:47;36.05;;;23.52;;
20976;SDS011;10647;51.016;3.720;2023-05-01T07:38:27;36.03;;;25.47;;
20976;SDS011;10647;51.016;3.720;2023-05-01T07:41:00;35.08;;;25.15;;
20976;SDS011;10647;51.016;3.720;2023-05-01T07:43:30;33.75;;;24.55;;
20976;SDS011;10647;51.016;3.720;2023-05-01T07:46:03;30.15;;;22.58;;
20976;SDS011;10647;51.016;3.720;2023-05-01T07:51:02;30.50;;;21.60;;
20976;SDS011;10647;51.016;3.720;2023-05-01T07:53:31;29.05;;;20.48;;
20976;SDS011;10647;51.016;3.720;2023-05-01T07:58:41;29.67;;;21.55;;
20976;SDS011;10647;51.016;3.720;2023-05-01T08:01:09;30.10;;;20.97;;
20976;SDS011;10647;51.016;3.720;2023-05-01T08:03:37;29.45;;;20.72;;
20976;SDS011;10647;51.016;3.720;2023-05-01T08:06:07;26.35;;;19.40;;
20976;SDS011;10647;51.016;3.720;2023-05-01T08:08:35;31.55;;;21.75;;
20976;SDS011;10647;51.016;3.720;2023-05-01T08:11:05;32.93;;;22.27;;
20976;SDS011;10647;51.016;3.720;2023-05-01T08:13:36;30.90;;;21.25;;
20976;SDS011;10647;51.016;3.720;2023-05-01T08:16:05;30.40;;;20.85;;
20976;SDS011;10647;51.016;3.720;2023-05-01T08:18:41;27.95;;;20.90;;
20976;SDS011;10647;51.016;3.720;2023-05-01T08:21:09;30.95;;;20.68;;
20976;SDS011;10647;51.016;3.720;2023-05-01T08:23:37;25.75;;;19.57;;
20976;SDS011;10647;51.016;3.720;2023-05-01T08:26:05;25.82;;;19.25;;
20976;SDS011;10647;51.016;3.720;2023-05-01T08:28:38;26.12;;;18.73;;
20976;SDS011;10647;51.016;3.720;2023-05-01T08:31:07;21.75;;;17.30;;
20976;SDS011;10647;51.016;3.720;2023-05-01T08:33:40;22.45;;;16.32;;
20976;SDS011;10647;51.016;3.720;2023-05-01T08:36:09;22.02;;;16.30;;
20976;SDS011;10647;51.016;3.720;2023-05-01T08:38:39;23.42;;;16.20;;
20976;SDS011;10647;51.016;3.720;2023-05-01T08:41:07;23.47;;;15.98;;
20976;SDS011;10647;51.016;3.720;2023-05-01T08:43:36;20.52;;;15.38;;
20976;SDS011;10647;51.016;3.720;2023-05-01T08:46:05;19.10;;;14.47;;
20976;SDS011;10647;51.016;3.720;2023-05-01T08:48:35;20.68;;;12.63;;
20976;SDS011;10647;51.016;3.720;2023-05-01T08:51:10;21.55;;;13.45;;
20976;SDS011;10647;51.016;3.720;2023-05-01T08:53:41;19.73;;;14.58;;
20976;SDS011;10647;51.016;3.720;2023-05-01T08:56:10;19.70;;;14.03;;
20976;SDS011;10647;51.016;3.720;2023-05-01T08:58:40;18.45;;;14.60;;
20976;SDS011;10647;51.016;3.720;2023-05-01T09:01:15;20.05;;;14.23;;
20976;SDS011;10647;51.016;3.720;2023-05-01T09:03:44;17.15;;;13.15;;
20976;SDS011;10647;51.016;3.720;2023-05-01T09:06:13;18.67;;;13.15;;
20976;SDS011;10647;51.016;3.720;2023-05-01T09:08:42;16.23;;;11.38;;
20976;SDS011;10647;51.016;3.720;2023-05-01T09:11:10;16.60;;;11.50;;
20976;SDS011;10647;51.016;3.720;2023-05-01T09:13:38;16.40;;;10.90;;
20976;SDS011;10647;51.016;3.720;2023-05-01T09:18:35;17.05;;;10.70;;
20976;SDS011;10647;51.016;3.720;2023-05-01T09:21:10;13.38;;;10.48;;
20976;SDS011;10647;51.016;3.720;2023-05-01T09:23:38;14.25;;;10.78;;
20976;SDS011;10647;51.016;3.720;2023-05-01T09:26:06;15.98;;;11.20;;
20976;SDS011;10647;51.016;3.720;2023-05-01T09:28:43;15.80;;;11.10;;
20976;SDS011;10647;51.016;3.720;2023-05-01T09:31:19;17.37;;;10.80;;
20976;SDS011;10647;51.016;3.720;2023-05-01T09:33:56;14.45;;;10.90;;
20976;SDS011;10647;51.016;3.720;2023-05-01T09:36:27;17.73;;;11.53;;
20976;SDS011;10647;51.016;3.720;2023-05-01T09:38:56;16.45;;;9.75;;
20976;SDS011;10647;51.016;3.720;2023-05-01T09:41:28;15.65;;;11.05;;
20976;SDS011;10647;51.016;3.720;2023-05-01T09:43:57;14.80;;;11.33;;
20976;SDS011;10647;51.016;3.720;2023-05-01T09:46:27;15.70;;;9.73;;
20976;SDS011;10647;51.016;3.720;2023-05-01T09:48:57;17.73;;;11.57;;
20976;SDS011;10647;51.016;3.720;2023-05-01T09:51:34;19.07;;;12.00;;
20976;SDS011;10647;51.016;3.720;2023-05-01T09:54:03;16.82;;;12.43;;
20976;SDS011;10647;51.016;3.720;2023-05-01T09:56:32;18.30;;;12.47;;
20976;SDS011;10647;51.016;3.720;2023-05-01T09:59:19;19.25;;;12.88;;
20976;SDS011;10647;51.016;3.720;2023-05-01T10:04:28;16.35;;;11.68;;
20976;SDS011;10647;51.016;3.720;2023-05-01T10:06:48;15.88;;;10.60;;
20976;SDS011;10647;51.016;3.720;2023-05-01T10:09:25;15.70;;;11.43;;
20976;SDS011;10647;51.016;3.720;2023-05-01T10:11:50;15.70;;;11.57;;
20976;SDS011;10647;51.016;3.720;2023-05-01T10:14:20;15.43;;;11.30;;
20976;SDS011;10647;51.016;3.720;2023-05-01T10:16:49;16.75;;;10.65;;
20976;SDS011;10647;51.016;3.720;2023-05-01T10:19:21;18.27;;;12.75;;
20976;SDS011;10647;51.016;3.720;2023-05-01T10:21:54;16.90;;;11.53;;
20976;SDS011;10647;51.016;3.720;2023-05-01T10:24:27;17.42;;;12.47;;
20976;SDS011;10647;51.016;3.720;2023-05-01T10:27:00;17.52;;;12.35;;
20976;SDS011;10647;51.016;3.720;2023-05-01T10:29:30;17.15;;;12.65;;
20976;SDS011;10647;51.016;3.720;2023-05-01T10:31:59;17.77;;;13.62;;
20976;SDS011;10647;51.016;3.720;2023-05-01T10:34:29;16.97;;;12.00;;
20976;SDS011;10647;51.016;3.720;2023-05-01T10:37:09;14.55;;;10.80;;
20976;SDS011;10647;51.016;3.720;2023-05-01T10:39:31;16.12;;;12.20;;
20976;SDS011;10647;51.016;3.720;2023-05-01T10:42:00;15.70;;;12.60;;
20976;SDS011;10647;51.016;3.720;2023-05-01T10:44:29;19.95;;;14.00;;
20976;SDS011;10647;51.016;3.720;2023-05-01T10:46:59;17.80;;;13.88;;
20976;SDS011;10647;51.016;3.720;2023-05-01T10:50:05;18.65;;;14.75;;
20976;SDS011;10647;51.016;3.720;2023-05-01T10:55:42;20.70;;;14.18;;
20976;SDS011;10647;51.016;3.720;2023-05-01T10:58:12;18.75;;;14.50;;
20976;SDS011;10647;51.016;3.720;2023-05-01T11:00:45;19.23;;;15.00;;
20976;SDS011;10647;51.016;3.720;2023-05-01T11:08:35;20.97;;;14.30;;
20976;SDS011;10647;51.016;3.720;2023-05-01T11:11:50;18.65;;;14.43;;
20976;SDS011;10647;51.016;3.720;2023-05-01T11:13:57;19.85;;;13.75;;
20976;SDS011;10647;51.016;3.720;2023-05-01T11:16:45;20.37;;;15.43;;
20976;SDS011;10647;51.016;3.720;2023-05-01T11:21:50;21.50;;;15.03;;
20976;SDS011;10647;51.016;3.720;2023-05-01T11:24:18;21.77;;;14.07;;
20976;SDS011;10647;51.016;3.720;2023-05-01T11:26:47;19.17;;;15.03;;
20976;SDS011;10647;51.016;3.720;2023-05-01T11:29:15;19.20;;;15.08;;
20976;SDS011;10647;51.016;3.720;2023-05-01T11:31:49;19.05;;;12.90;;
20976;SDS011;10647;51.016;3.720;2023-05-01T11:34:17;19.98;;;14.83;;
20976;SDS011;10647;51.016;3.720;2023-05-01T11:36:51;23.00;;;15.30;;
20976;SDS011;10647;51.016;3.720;2023-05-01T11:39:19;19.32;;;14.20;;
20976;SDS011;10647;51.016;3.720;2023-05-01T11:41:46;18.20;;;15.20;;
20976;SDS011;10647;51.016;3.720;2023-05-01T11:44:15;18.25;;;14.78;;
20976;SDS011;10647;51.016;3.720;2023-05-01T11:46:43;23.10;;;13.95;;
20976;SDS011;10647;51.016;3.720;2023-05-01T11:49:21;19.92;;;14.65;;
20976;SDS011;10647;51.016;3.720;2023-05-01T11:51:54;19.55;;;13.78;;
20976;SDS011;10647;51.016;3.720;2023-05-01T11:56:57;20.35;;;15.53;;
20976;SDS011;10647;51.016;3.720;2023-05-01T11:59:28;19.32;;;15.15;;
20976;SDS011;10647;51.016;3.720;2023-05-01T12:02:02;19.05;;;12.82;;
20976;SDS011;10647;51.016;3.720;2023-05-01T12:04:30;21.50;;;14.78;;
20976;SDS011;10647;51.016;3.720;2023-05-01T12:06:58;20.55;;;16.62;;
20976;SDS011;10647;51.016;3.720;2023-05-01T12:09:25;19.00;;;15.30;;
20976;SDS011;10647;51.016;3.720;2023-05-01T12:11:55;21.48;;;14.70;;
20976;SDS011;10647;51.016;3.720;2023-05-01T12:14:25;20.45;;;15.50;;
20976;SDS011;10647;51.016;3.720;2023-05-01T12:16:53;20.50;;;15.72;;
20976;SDS011;10647;51.016;3.720;2023-05-01T12:19:21;18.82;;;14.68;;
20976;SDS011;10647;51.016;3.720;2023-05-01T12:22:03;17.55;;;10.95;;
20976;SDS011;10647;51.016;3.720;2023-05-01T12:24:35;20.90;;;12.53;;
20976;SDS011;10647;51.016;3.720;2023-05-01T12:27:03;17.75;;;13.38;;
20976;SDS011;10647;51.016;3.720;2023-05-01T12:29:38;17.77;;;13.85;;
20976;SDS011;10647;51.016;3.720;2023-05-01T12:32:06;18.48;;;12.53;;
20976;SDS011;10647;51.016;3.720;2023-05-01T12:34:34;15.53;;;12.13;;
20976;SDS011;10647;51.016;3.720;2023-05-01T12:37:02;19.40;;;13.80;;
20976;SDS011;10647;51.016;3.720;2023-05-01T12:39:37;16.20;;;12.82;;
20976;SDS011;10647;51.016;3.720;2023-05-01T12:42:11;18.98;;;13.28;;
20976;SDS011;10647;51.016;3.720;2023-05-01T12:44:39;19.48;;;12.60;;
20976;SDS011;10647;51.016;3.720;2023-05-01T12:47:08;15.83;;;11.93;;
20976;SDS011;10647;51.016;3.720;2023-05-01T12:49:37;19.07;;;13.38;;
20976;SDS011;10647;51.016;3.720;2023-05-01T12:52:05;17.42;;;12.28;;
20976;SDS011;10647;51.016;3.720;2023-05-01T12:54:34;18.70;;;12.68;;
20976;SDS011;10647;51.016;3.720;2023-05-01T12:57:07;15.48;;;12.68;;
20976;SDS011;10647;51.016;3.720;2023-05-01T12:59:37;17.77;;;13.83;;
20976;SDS011;10647;51.016;3.720;2023-05-01T13:02:06;15.45;;;11.95;;
20976;SDS011;10647;51.016;3.720;2023-05-01T13:04:37;16.20;;;12.88;;
20976;SDS011;10647;51.016;3.720;2023-05-01T13:07:10;16.50;;;13.45;;
20976;SDS011;10647;51.016;3.720;2023-05-01T13:09:39;16.90;;;12.90;;
20976;SDS011;10647;51.016;3.720;2023-05-01T13:12:10;18.00;;;12.47;;
20976;SDS011;10647;51.016;3.720;2023-05-01T13:14:38;19.90;;;13.48;;
20976;SDS011;10647;51.016;3.720;2023-05-01T13:17:07;15.20;;;12.43;;
20976;SDS011;10647;51.016;3.720;2023-05-01T13:19:36;17.35;;;12.73;;
20976;SDS011;10647;51.016;3.720;2023-05-01T13:22:05;16.52;;;12.58;;
20976;SDS011;10647;51.016;3.720;2023-05-01T13:24:39;18.85;;;11.50;;
20976;SDS011;10647;51.016;3.720;2023-05-01T13:27:11;19.10;;;12.37;;
20976;SDS011;10647;51.016;3.720;2023-05-01T13:29:39;17.32;;;13.05;;
20976;SDS011;10647;51.016;3.720;2023-05-01T13:32:09;17.98;;;12.55;;
20976;SDS011;10647;51.016;3.720;2023-05-01T13:34:40;16.37;;;12.03;;
20976;SDS011;10647;51.016;3.720;2023-05-01T13:37:08;14.58;;;9.30;;
20976;SDS011;10647;51.016;3.720;2023-05-01T13:39:40;16.62;;;10.72;;
20976;SDS011;10647;51.016;3.720;2023-05-01T13:42:22;17.20;;;12.13;;
20976;SDS011;10647;51.016;3.720;2023-05-01T13:44:50;11.78;;;8.23;;
20976;SDS011;10647;51.016;3.720;2023-05-01T13:47:20;16.95;;;11.70;;
20976;SDS011;10647;51.016;3.720;2023-05-01T13:49:50;19.92;;;11.93;;
20976;SDS011;10647;51.016;3.720;2023-05-01T13:52:21;18.15;;;13.08;;
20976;SDS011;10647;51.016;3.720;2023-05-01T13:54:51;20.60;;;13.03;;
20976;SDS011;10647;51.016;3.720;2023-05-01T13:57:20;15.65;;;11.60;;
20976;SDS011;10647;51.016;3.720;2023-05-01T13:59:49;14.43;;;11.53;;
20976;SDS011;10647;51.016;3.720;2023-05-01T14:04:59;12.93;;;10.15;;
20976;SDS011;10647;51.016;3.720;2023-05-01T14:10:16;8.45;;;7.25;;
20976;SDS011;10647;51.016;3.720;2023-05-01T14:12:50;12.85;;;8.08;;
20976;SDS011;10647;51.016;3.720;2023-05-01T14:15:24;7.67;;;6.78;;
20976;SDS011;10647;51.016;3.720;2023-05-01T14:17:54;10.32;;;9.15;;
20976;SDS011;10647;51.016;3.720;2023-05-01T14:23:24;9.78;;;7.87;;
20976;SDS011;10647;51.016;3.720;2023-05-01T14:25:54;8.30;;;7.25;;
20976;SDS011;10647;51.016;3.720;2023-05-01T14:28:25;7.83;;;7.03;;
20976;SDS011;10647;51.016;3.720;2023-05-01T14:31:05;12.63;;;8.05;;
20976;SDS011;10647;51.016;3.720;2023-05-01T14:36:34;11.97;;;7.78;;
20976;SDS011;10647;51.016;3.720;2023-05-01T14:47:13;14.38;;;9.73;;
20976;SDS011;10647;51.016;3.720;2023-05-01T14:52:22;10.08;;;7.50;;
20976;SDS011;10647;51.016;3.720;2023-05-01T14:55:02;12.40;;;7.83;;
20976;SDS011;10647;51.016;3.720;2023-05-01T14:57:38;11.73;;;7.95;;
20976;SDS011;10647;51.016;3.720;2023-05-01T15:03:06;8.80;;;5.58;;
20976;SDS011;10647;51.016;3.720;2023-05-01T15:05:36;11.05;;;6.25;;
20976;SDS011;10647;51.016;3.720;2023-05-01T15:16:14;10.72;;;4.97;;
20976;SDS011;10647;51.016;3.720;2023-05-01T15:18:44;9.95;;;4.87;;
20976;SDS011;10647;51.016;3.720;2023-05-01T15:24:34;8.73;;;4.33;;
20976;SDS011;10647;51.016;3.720;2023-05-01T15:27:01;7.87;;;4.55;;
20976;SDS011;10647;51.016;3.720;2023-05-01T15:29:30;7.10;;;4.00;;
20976;SDS011;10647;51.016;3.720;2023-05-01T15:31:58;7.90;;;3.35;;
20976;SDS011;10647;51.016;3.720;2023-05-01T15:34:30;9.73;;;4.40;;
20976;SDS011;10647;51.016;3.720;2023-05-01T15:36:57;8.48;;;4.40;;
20976;SDS011;10647;51.016;3.720;2023-05-01T15:39:27;9.08;;;4.10;;
20976;SDS011;10647;51.016;3.720;2023-05-01T15:42:00;9.93;;;4.70;;
20976;SDS011;10647;51.016;3.720;2023-05-01T15:44:28;11.95;;;4.78;;
20976;SDS011;10647;51.016;3.720;2023-05-01T15:46:56;9.50;;;4.60;;
20976;SDS011;10647;51.016;3.720;2023-05-01T15:49:30;6.20;;;3.70;;
20976;SDS011;10647;51.016;3.720;2023-05-01T15:52:13;9.80;;;4.83;;
20976;SDS011;10647;51.016;3.720;2023-05-01T15:54:49;10.20;;;5.62;;
20976;SDS011;10647;51.016;3.720;2023-05-01T15:59:47;12.45;;;4.70;;
20976;SDS011;10647;51.016;3.720;2023-05-01T16:02:30;11.75;;;4.30;;
20976;SDS011;10647;51.016;3.720;2023-05-01T16:04:59;9.03;;;4.53;;
20976;SDS011;10647;51.016;3.720;2023-05-01T16:07:29;13.35;;;5.70;;
20976;SDS011;10647;51.016;3.720;2023-05-01T16:10:15;8.20;;;4.60;;
20976;SDS011;10647;51.016;3.720;2023-05-01T16:12:49;9.45;;;5.80;;
20976;SDS011;10647;51.016;3.720;2023-05-01T16:15:20;11.38;;;5.12;;
20976;SDS011;10647;51.016;3.720;2023-05-01T16:18:05;13.22;;;6.20;;
20976;SDS011;10647;51.016;3.720;2023-05-01T16:20:37;10.72;;;6.03;;
20976;SDS011;10647;51.016;3.720;2023-05-01T16:23:07;10.45;;;5.83;;
20976;SDS011;10647;51.016;3.720;2023-05-01T16:25:34;9.65;;;6.20;;
20976;SDS011;10647;51.016;3.720;2023-05-01T16:28:03;11.83;;;6.85;;
20976;SDS011;10647;51.016;3.720;2023-05-01T16:30:31;12.43;;;6.83;;
20976;SDS011;10647;51.016;3.720;2023-05-01T16:33:02;10.50;;;5.17;;